createdAt,value
2022-10-11T00:01:26.818Z,9.67
2022-10-11T00:03:53.388Z,9.39
2022-10-11T00:06:20.676Z,9.40
2022-10-11T00:08:47.284Z,9.52
2022-10-11T00:11:14.013Z,9.30
2022-10-11T00:13:42.721Z,9.41
2022-10-11T00:16:11.323Z,9.49
2022-10-11T00:18:38.077Z,9.25
2022-10-11T00:21:07.701Z,9.38
2022-10-11T00:23:35.336Z,9.24
2022-10-11T00:26:04.894Z,9.18
2022-10-11T00:28:32.382Z,9.39
2022-10-11T00:30:59.363Z,9.21
2022-10-11T00:33:26.108Z,9.23
2022-10-11T00:35:52.669Z,9.34
2022-10-11T00:38:19.319Z,9.12
2022-10-11T00:40:45.958Z,9.24
2022-10-11T00:43:23.171Z,9.19
2022-10-11T00:45:55.537Z,9.09
2022-10-11T00:48:31.588Z,9.23
2022-10-11T00:51:02.146Z,9.03
2022-10-11T00:53:35.028Z,9.15
2022-10-11T00:56:09.835Z,9.18
2022-10-11T00:58:39.279Z,9.05
2022-10-11T01:01:05.991Z,9.20
2022-10-11T01:03:34.635Z,9.00
2022-10-11T01:06:03.928Z,9.10
2022-10-11T01:08:32.193Z,9.18
2022-10-11T01:11:01.546Z,9.02
2022-10-11T01:13:55.514Z,9.12
2022-10-11T01:16:52.285Z,9.11
2022-10-11T01:19:33.809Z,8.93
2022-10-11T01:22:33.239Z,9.12
2022-10-11T01:25:39.432Z,8.87
2022-10-11T01:28:21.292Z,8.84
2022-10-11T01:30:49.000Z,8.98
2022-10-11T01:33:41.260Z,8.69
2022-10-11T01:36:32.549Z,8.77
2022-10-11T01:39:26.332Z,8.72
2022-10-11T01:41:56.448Z,8.51
2022-10-11T01:44:26.010Z,8.70
2022-10-11T01:46:53.729Z,8.70
2022-10-11T01:49:20.541Z,8.52
2022-10-11T01:51:52.756Z,8.66
2022-10-11T01:55:07.714Z,8.62
2022-10-11T01:57:41.183Z,8.53
2022-10-11T02:00:20.624Z,8.72
2022-10-11T02:03:13.024Z,8.58
2022-10-11T02:05:56.665Z,8.60
2022-10-11T02:08:46.438Z,8.81
2022-10-11T02:11:27.128Z,8.60
2022-10-11T02:14:02.825Z,8.73
2022-10-11T02:16:37.532Z,8.68
2022-10-11T02:19:07.268Z,8.56
2022-10-11T02:21:36.287Z,8.74
2022-10-11T02:24:13.534Z,8.58
2022-10-11T02:26:44.132Z,8.55
2022-10-11T02:29:16.725Z,8.74
2022-10-11T02:31:45.248Z,8.60
2022-10-11T02:34:18.383Z,8.68
2022-10-11T02:37:11.573Z,8.74
2022-10-11T02:39:48.419Z,8.57
2022-10-11T02:42:30.890Z,8.79
2022-10-11T02:45:01.633Z,8.66
2022-10-11T02:47:32.056Z,8.71
2022-10-11T02:49:59.850Z,8.85
2022-10-11T02:52:26.741Z,8.61
2022-10-11T02:54:55.750Z,8.70
2022-10-11T02:57:22.371Z,8.68
2022-10-11T02:59:51.132Z,8.63
2022-10-11T03:02:17.856Z,8.76
2022-10-11T03:04:44.516Z,8.69
2022-10-11T03:07:11.893Z,8.62
2022-10-11T03:09:38.644Z,8.73
2022-10-11T03:12:05.329Z,8.55
2022-10-11T03:14:34.268Z,8.63
2022-10-11T03:17:23.700Z,8.58
2022-10-11T03:19:47.897Z,8.47
2022-10-11T03:22:14.726Z,8.61
2022-10-11T03:24:41.328Z,8.41
2022-10-11T03:27:07.930Z,8.45
2022-10-11T03:29:36.766Z,8.44
2022-10-11T03:32:03.467Z,8.32
2022-10-11T03:34:30.188Z,8.44
2022-10-11T03:36:56.841Z,8.29
2022-10-11T03:39:23.648Z,8.29
2022-10-11T03:41:50.222Z,8.30
2022-10-11T03:44:16.997Z,8.21
2022-10-11T03:46:43.588Z,8.32
2022-10-11T03:49:10.147Z,8.20
2022-10-11T03:51:38.853Z,8.20
2022-10-11T03:54:07.441Z,8.19
2022-10-11T03:56:36.075Z,8.07
2022-10-11T03:59:02.729Z,8.18
2022-10-11T04:01:29.398Z,7.96
2022-10-11T04:03:57.314Z,7.97
2022-10-11T04:06:25.624Z,7.94
2022-10-11T04:08:52.303Z,7.86
2022-10-11T04:11:18.855Z,8.00
2022-10-11T04:13:45.405Z,7.84
2022-10-11T04:16:12.227Z,7.81
2022-10-11T04:18:38.905Z,7.77
2022-10-11T04:21:08.341Z,7.58
2022-10-11T04:23:35.193Z,7.68
2022-10-11T04:26:07.207Z,7.47
2022-10-11T04:28:34.626Z,7.41
2022-10-11T04:31:01.318Z,7.44
2022-10-11T04:33:27.892Z,7.23
2022-10-11T04:35:56.111Z,7.34
2022-10-11T04:38:23.896Z,7.18
2022-10-11T04:40:50.930Z,7.18
2022-10-11T04:43:18.666Z,7.16
2022-10-11T04:45:45.235Z,7.01
2022-10-11T04:48:11.861Z,7.12
2022-10-11T04:50:38.439Z,6.90
2022-10-11T04:53:05.068Z,6.91
2022-10-11T04:55:33.551Z,6.87
2022-10-11T04:58:00.124Z,6.70
2022-10-11T05:00:27.669Z,6.77
2022-10-11T05:02:55.342Z,6.51
2022-10-11T05:05:22.704Z,6.58
2022-10-11T05:07:50.007Z,6.49
2022-10-11T05:10:18.440Z,6.40
2022-10-11T05:12:45.112Z,6.48
2022-10-11T05:15:11.685Z,6.31
2022-10-11T05:17:40.412Z,6.32
2022-10-11T05:20:09.803Z,6.27
2022-10-11T05:22:38.636Z,6.21
2022-10-11T05:25:05.673Z,6.32
2022-10-11T05:27:34.497Z,6.12
2022-10-11T05:30:01.975Z,6.18
2022-10-11T05:32:30.552Z,6.07
2022-10-11T05:34:57.112Z,5.95
2022-10-11T05:37:24.390Z,6.08
2022-10-11T05:39:50.973Z,5.87
2022-10-11T05:42:17.524Z,5.96
2022-10-11T05:44:44.124Z,5.93
2022-10-11T05:47:10.671Z,5.76
2022-10-11T05:49:37.480Z,5.88
2022-10-11T05:52:06.726Z,5.77
2022-10-11T05:54:35.691Z,5.78
2022-10-11T05:57:02.236Z,5.79
2022-10-11T05:59:28.861Z,5.69
2022-10-11T06:01:57.588Z,5.75
2022-10-11T06:04:24.868Z,5.67
2022-10-11T06:06:52.759Z,5.69
2022-10-11T06:09:19.399Z,5.74
2022-10-11T06:11:46.210Z,5.68
2022-10-11T06:14:12.982Z,5.75
2022-10-11T06:16:41.715Z,5.72
2022-10-11T06:19:08.308Z,5.66
2022-10-11T06:21:34.956Z,5.78
2022-10-11T06:24:02.631Z,5.68
2022-10-11T06:26:29.680Z,5.67
2022-10-11T06:28:58.928Z,5.73
2022-10-11T06:31:25.797Z,5.61
2022-10-11T06:33:52.363Z,5.71
2022-10-11T06:36:19.205Z,5.73
2022-10-11T06:38:46.061Z,5.62
2022-10-11T06:41:23.513Z,5.72
2022-10-11T06:43:53.045Z,5.61
2022-10-11T06:46:21.766Z,5.62
2022-10-11T06:48:49.120Z,5.73
2022-10-11T06:51:17.956Z,5.64
2022-10-11T06:53:49.056Z,5.71
2022-10-11T06:56:15.618Z,5.73
2022-10-11T06:58:42.287Z,5.68
2022-10-11T07:01:12.639Z,5.83
2022-10-11T07:03:39.497Z,5.80
2022-10-11T07:06:11.954Z,5.82
2022-10-11T07:08:39.668Z,5.97
2022-10-11T07:11:13.397Z,5.83
2022-10-11T07:13:41.368Z,5.97
2022-10-11T07:16:13.096Z,5.97
2022-10-11T07:18:39.946Z,5.93
2022-10-11T07:21:08.669Z,6.10
2022-10-11T07:23:35.276Z,6.04
2022-10-11T07:26:04.737Z,6.14
2022-10-11T07:28:31.809Z,6.28
2022-10-11T07:30:59.227Z,6.19
2022-10-11T07:33:25.969Z,6.33
2022-10-11T07:35:57.111Z,6.33
2022-10-11T07:38:23.759Z,6.31
2022-10-11T07:40:52.611Z,6.45
2022-10-11T07:43:19.279Z,6.37
2022-10-11T07:45:48.535Z,6.52
2022-10-11T07:48:15.227Z,6.51
2022-10-11T07:50:41.942Z,6.56
2022-10-11T07:53:11.959Z,6.66
2022-10-11T07:55:40.270Z,6.62
2022-10-11T07:58:12.365Z,6.74
2022-10-11T08:00:42.224Z,6.71
2022-10-11T08:03:09.612Z,6.80
2022-10-11T08:05:39.360Z,6.81
2022-10-11T08:08:06.217Z,6.84
2022-10-11T08:10:37.948Z,7.00
2022-10-11T08:13:04.879Z,6.93
2022-10-11T08:15:31.574Z,7.07
2022-10-11T08:17:58.135Z,7.09
2022-10-11T08:20:24.752Z,7.13
2022-10-11T08:22:51.428Z,7.21
2022-10-11T08:25:18.069Z,7.17
2022-10-11T08:27:44.700Z,7.31
2022-10-11T08:30:11.968Z,7.30
2022-10-11T08:32:38.522Z,7.41
2022-10-11T08:35:05.960Z,7.49
2022-10-11T08:37:32.575Z,7.51
2022-10-11T08:39:59.387Z,7.63
2022-10-11T08:42:41.418Z,7.57
2022-10-11T08:45:16.956Z,7.71
2022-10-11T08:47:45.120Z,7.81
2022-10-11T08:50:19.838Z,7.85
2022-10-11T08:53:13.464Z,7.91
2022-10-11T08:55:44.131Z,7.91
2022-10-11T08:58:19.708Z,8.06
2022-10-11T09:00:48.276Z,8.04
2022-10-11T09:03:42.836Z,8.18
2022-10-11T09:06:40.100Z,8.19
2022-10-11T09:09:44.589Z,8.22
2022-10-11T09:12:20.224Z,8.37
2022-10-11T09:15:17.929Z,8.38
2022-10-11T09:17:59.473Z,8.44
2022-10-11T09:20:41.964Z,8.60
2022-10-11T09:23:42.597Z,8.60
2022-10-11T09:26:25.628Z,8.63
2022-10-11T09:29:06.805Z,8.78
2022-10-11T09:31:35.596Z,8.91
2022-10-11T09:34:16.423Z,8.97
2022-10-11T09:37:03.575Z,8.99
2022-10-11T09:39:45.728Z,9.07
2022-10-11T09:42:12.524Z,9.12
2022-10-11T09:44:50.597Z,9.21
2022-10-11T09:47:21.982Z,9.31
2022-10-11T09:50:01.274Z,9.37
2022-10-11T09:52:27.938Z,9.37
2022-10-11T09:54:58.092Z,9.25
2022-10-11T09:57:37.698Z,9.41
2022-10-11T10:00:18.904Z,9.50
2022-10-11T10:02:51.964Z,9.52
2022-10-11T10:05:24.689Z,9.54
2022-10-11T10:08:09.546Z,9.58
2022-10-11T10:10:59.264Z,9.66
2022-10-11T10:13:39.316Z,9.74
2022-10-11T10:16:08.058Z,9.78
2022-10-11T10:18:38.219Z,9.86
2022-10-11T10:21:10.077Z,9.92
2022-10-11T10:23:37.639Z,10.00
2022-10-11T10:26:15.615Z,10.01
2022-10-11T10:29:01.244Z,10.03
2022-10-11T10:32:13.513Z,10.12
2022-10-11T10:34:39.852Z,10.13
2022-10-11T10:37:25.340Z,10.22
2022-10-11T10:40:00.499Z,10.24
2022-10-11T10:42:28.048Z,10.26
2022-10-11T10:44:57.064Z,10.36
2022-10-11T10:48:11.993Z,10.34
2022-10-11T10:50:54.639Z,10.30
2022-10-11T10:53:26.436Z,10.30
2022-10-11T10:56:06.203Z,10.36
2022-10-11T10:59:10.216Z,10.36
2022-10-11T11:01:49.849Z,10.37
2022-10-11T11:04:26.942Z,10.43
2022-10-11T11:07:30.233Z,10.42
2022-10-11T11:10:11.503Z,10.42
2022-10-11T11:13:13.631Z,10.46
2022-10-11T11:15:49.115Z,10.51
2022-10-11T11:18:36.147Z,10.56
2022-10-11T11:21:05.997Z,10.57
2022-10-11T11:23:42.506Z,10.61
2022-10-11T11:26:14.168Z,10.67
2022-10-11T11:29:00.348Z,10.77
2022-10-11T11:31:32.867Z,10.79
2022-10-11T11:34:17.080Z,10.82
2022-10-11T11:36:49.533Z,10.82
2022-10-11T11:39:23.241Z,10.84
2022-10-11T11:41:58.580Z,10.85
2022-10-11T11:44:31.633Z,10.89
2022-10-11T11:47:11.332Z,10.95
2022-10-11T11:49:41.506Z,10.98
2022-10-11T11:52:16.317Z,10.95
2022-10-11T11:54:52.599Z,10.97
2022-10-11T11:57:38.157Z,11.03
2022-10-11T12:00:17.708Z,11.11
2022-10-11T12:02:59.959Z,11.09
2022-10-11T12:05:36.249Z,11.06
2022-10-11T12:08:08.398Z,11.12
2022-10-11T12:10:53.499Z,11.14
2022-10-11T12:13:35.800Z,11.17
2022-10-11T12:16:10.676Z,11.22
2022-10-11T12:18:55.992Z,11.25
2022-10-11T12:21:23.253Z,11.31
2022-10-11T12:23:54.938Z,11.37
2022-10-11T12:26:27.760Z,11.41
2022-10-11T12:29:18.340Z,11.45
2022-10-11T12:31:49.979Z,11.50
2022-10-11T12:34:42.024Z,11.52
2022-10-11T12:37:19.799Z,11.52
2022-10-11T12:39:54.207Z,11.51
2022-10-11T12:42:28.204Z,11.56
2022-10-11T12:45:15.873Z,11.59
2022-10-11T12:48:08.903Z,11.55
2022-10-11T12:51:02.788Z,11.31
2022-10-11T12:54:25.569Z,11.43
2022-10-11T12:57:35.109Z,11.49
2022-10-11T13:00:31.166Z,11.48
2022-10-11T13:03:29.754Z,11.37
2022-10-11T13:06:01.892Z,11.36
2022-10-11T13:08:36.800Z,11.51
2022-10-11T13:11:08.708Z,11.56
2022-10-11T13:13:45.309Z,11.40
2022-10-11T13:16:19.778Z,11.25
2022-10-11T13:18:49.716Z,11.30
2022-10-11T13:21:27.121Z,11.33
2022-10-11T13:24:16.594Z,11.10
2022-10-11T13:26:45.524Z,11.02
2022-10-11T13:29:18.696Z,11.06
2022-10-11T13:31:47.399Z,11.02
2022-10-11T13:34:14.597Z,10.67
2022-10-11T13:36:42.355Z,10.72
2022-10-11T13:39:30.141Z,10.82
2022-10-11T13:41:59.862Z,10.66
2022-10-11T13:44:27.444Z,10.60
2022-10-11T13:46:54.584Z,10.68
2022-10-11T13:49:37.137Z,10.62
2022-10-11T13:52:18.673Z,10.45
2022-10-11T13:55:04.349Z,10.55
2022-10-11T13:57:36.314Z,10.48
2022-10-11T14:00:24.181Z,10.30
2022-10-11T14:03:01.809Z,10.39
2022-10-11T14:05:54.109Z,10.32
2022-10-11T14:08:37.858Z,10.14
2022-10-11T14:11:06.840Z,10.22
2022-10-11T14:13:38.565Z,10.23
2022-10-11T14:16:11.228Z,10.04
2022-10-11T14:18:44.562Z,10.22
2022-10-11T14:21:43.393Z,10.27
2022-10-11T14:24:13.043Z,10.13
2022-10-11T14:26:42.775Z,10.38
2022-10-11T14:29:17.680Z,10.45
2022-10-11T14:31:44.338Z,10.23
2022-10-11T14:34:25.308Z,10.44
2022-10-11T14:36:53.568Z,10.58
2022-10-11T14:39:24.736Z,10.28
2022-10-11T14:41:52.505Z,10.43
2022-10-11T14:44:20.547Z,10.57
2022-10-11T14:46:50.213Z,10.45
2022-10-11T14:49:30.808Z,10.56
2022-10-11T14:51:59.484Z,10.69
2022-10-11T14:54:27.455Z,10.54
2022-10-11T14:56:56.896Z,10.54
2022-10-11T14:59:26.890Z,10.65
2022-10-11T15:01:56.387Z,10.58
2022-10-11T15:04:26.045Z,10.57
2022-10-11T15:06:55.344Z,10.77
2022-10-11T15:09:22.191Z,10.89
2022-10-11T15:11:51.536Z,10.78
2022-10-11T15:14:18.375Z,11.00
2022-10-11T15:16:44.977Z,11.19
2022-10-11T15:19:16.844Z,11.20
2022-10-11T15:21:43.733Z,10.80
2022-10-11T15:24:10.359Z,10.88
2022-10-11T15:26:37.033Z,10.99
2022-10-11T15:29:03.693Z,10.60
2022-10-11T15:31:30.403Z,10.47
2022-10-11T15:33:59.619Z,10.57
2022-10-11T15:36:28.637Z,10.39
2022-10-11T15:38:55.677Z,10.07
2022-10-11T15:41:23.983Z,10.16
2022-10-11T15:43:50.696Z,9.67
2022-10-11T15:46:22.760Z,9.74
2022-10-11T15:48:52.975Z,9.59
2022-10-11T15:51:19.832Z,9.50
2022-10-11T15:53:46.985Z,9.60
2022-10-11T15:56:16.928Z,9.33
2022-10-11T15:58:43.801Z,9.50
2022-10-11T16:01:19.417Z,9.23
2022-10-11T16:03:50.720Z,9.19
2022-10-11T16:06:19.344Z,9.11
2022-10-11T16:08:48.055Z,8.90
2022-10-11T16:11:15.156Z,9.06
2022-10-11T16:13:41.775Z,8.78
2022-10-11T16:16:09.868Z,8.84
2022-10-11T16:18:37.147Z,8.66
2022-10-11T16:21:11.364Z,8.47
2022-10-11T16:23:38.772Z,8.64
2022-10-11T16:26:08.758Z,8.38
2022-10-11T16:28:35.947Z,8.58
2022-10-11T16:31:10.162Z,8.45
2022-10-11T16:33:46.193Z,8.49
2022-10-11T16:36:43.184Z,8.53
2022-10-11T16:39:15.874Z,8.40
2022-10-11T16:41:43.068Z,8.54
2022-10-11T16:44:18.403Z,8.41
2022-10-11T16:46:49.881Z,8.57
2022-10-11T16:49:22.161Z,8.46
2022-10-11T16:51:49.779Z,8.50
2022-10-11T16:54:20.450Z,8.50
2022-10-11T16:56:48.487Z,8.33
2022-10-11T16:59:15.393Z,8.51
2022-10-11T17:01:44.265Z,8.24
2022-10-11T17:04:10.979Z,8.28
2022-10-11T17:06:40.124Z,8.20
2022-10-11T17:09:07.863Z,8.04
2022-10-11T17:11:34.513Z,8.20
2022-10-11T17:14:01.884Z,8.13
2022-10-11T17:16:28.563Z,8.09
2022-10-11T17:18:55.113Z,8.16
2022-10-11T17:21:22.511Z,8.12
2022-10-11T17:23:49.755Z,8.25
2022-10-11T17:26:19.661Z,8.02
2022-10-11T17:28:48.861Z,8.09
2022-10-11T17:31:15.644Z,8.22
2022-10-11T17:33:42.327Z,8.10
2022-10-11T17:36:20.141Z,8.24
2022-10-11T17:38:47.440Z,8.22
2022-10-11T17:41:14.140Z,8.28
2022-10-11T17:43:41.212Z,8.18
2022-10-11T17:46:09.280Z,8.16
2022-10-11T17:48:37.445Z,8.29
2022-10-11T17:51:16.163Z,8.15
2022-10-11T17:53:43.688Z,8.31
2022-10-11T17:56:13.596Z,8.30
2022-10-11T17:58:40.419Z,8.36
2022-10-11T18:01:10.389Z,8.44
2022-10-11T18:03:37.682Z,8.31
2022-10-11T18:06:06.232Z,8.49
2022-10-11T18:08:40.407Z,8.45
2022-10-11T18:11:11.949Z,8.45
2022-10-11T18:13:42.064Z,8.39
2022-10-11T18:16:10.389Z,8.43
2022-10-11T18:18:37.260Z,8.54
2022-10-11T18:21:03.927Z,8.30
2022-10-11T18:23:31.304Z,8.41
2022-10-11T18:25:57.876Z,8.30
2022-10-11T18:28:24.623Z,8.18
2022-10-11T18:30:53.202Z,8.26
2022-10-11T18:33:19.768Z,8.11
2022-10-11T18:35:46.332Z,8.21
2022-10-11T18:38:12.952Z,8.03
2022-10-11T18:40:44.757Z,7.98
2022-10-11T18:43:13.464Z,7.98
2022-10-11T18:45:40.109Z,7.75
2022-10-11T18:48:08.615Z,7.90
2022-10-11T18:50:35.636Z,7.61
2022-10-11T18:55:31.444Z,7.57
2022-10-11T18:57:58.023Z,7.41
2022-10-11T19:00:40.737Z,7.55
2022-10-11T19:03:08.049Z,7.22
2022-10-11T19:05:34.637Z,7.39
2022-10-11T19:08:01.271Z,7.30
2022-10-11T19:10:28.203Z,7.26
2022-10-11T19:12:54.832Z,7.44
2022-10-11T19:15:25.224Z,7.24
2022-10-11T19:17:55.029Z,7.32
2022-10-11T19:20:21.940Z,7.33
2022-10-11T19:22:48.742Z,7.27
2022-10-11T19:25:15.532Z,7.40
2022-10-11T19:27:42.207Z,7.26
2022-10-11T19:30:09.104Z,7.32
2022-10-11T19:32:35.685Z,7.28
2022-10-11T19:35:02.373Z,7.02
2022-10-11T19:37:30.939Z,7.17
2022-10-11T19:39:57.720Z,6.94
2022-10-11T19:42:24.963Z,6.90
2022-10-11T19:44:51.549Z,6.99
2022-10-11T19:47:18.289Z,6.96
2022-10-11T19:49:44.891Z,7.12
2022-10-11T19:52:13.378Z,7.04
2022-10-11T19:54:39.963Z,7.06
2022-10-11T19:57:08.767Z,7.12
2022-10-11T19:59:37.466Z,7.03
2022-10-11T20:02:04.019Z,7.19
2022-10-11T20:04:51.699Z,7.14
2022-10-11T20:07:17.972Z,7.19
2022-10-11T20:09:44.554Z,7.34
2022-10-11T20:12:11.105Z,7.27
2022-10-11T20:14:37.789Z,7.43
2022-10-11T20:17:04.366Z,7.28
2022-10-11T20:19:31.749Z,7.31
2022-10-11T20:21:59.853Z,7.36
2022-10-11T20:24:28.955Z,7.17
2022-10-11T20:26:55.696Z,7.26
2022-10-11T20:29:24.256Z,7.18
2022-10-11T20:31:53.545Z,7.19
2022-10-11T20:34:20.158Z,7.28
2022-10-11T20:36:49.084Z,7.13
2022-10-11T20:39:16.129Z,7.22
2022-10-11T20:41:42.938Z,7.09
2022-10-11T20:44:10.410Z,7.17
2022-10-11T20:46:39.195Z,7.16
2022-10-11T20:49:09.772Z,6.98
2022-10-11T20:51:38.507Z,7.13
2022-10-11T20:54:05.528Z,7.03
2022-10-11T20:56:35.911Z,7.09
2022-10-11T20:59:02.478Z,7.02
2022-10-11T21:01:35.286Z,6.94
2022-10-11T21:04:02.865Z,7.05
2022-10-11T21:06:32.167Z,6.87
2022-10-11T21:08:59.932Z,6.96
2022-10-11T21:11:33.340Z,6.90
2022-10-11T21:14:02.347Z,6.75
2022-10-11T21:16:29.487Z,6.74
2022-10-11T21:18:57.847Z,6.56
2022-10-11T21:21:25.255Z,6.69
2022-10-11T21:24:00.609Z,6.43
2022-10-11T21:26:28.000Z,6.54
2022-10-11T21:28:54.716Z,6.50
2022-10-11T21:31:22.649Z,6.33
2022-10-11T21:33:49.661Z,6.45
2022-10-11T21:36:20.089Z,6.21
2022-10-11T21:38:47.825Z,6.31
2022-10-11T21:41:17.598Z,6.22
2022-10-11T21:43:44.199Z,6.15
2022-10-11T21:46:14.023Z,6.28
2022-10-11T21:48:40.727Z,6.03
2022-10-11T21:51:09.519Z,6.15
2022-10-11T21:53:38.412Z,5.94
2022-10-11T21:56:05.014Z,5.87
2022-10-11T21:58:33.774Z,5.88
2022-10-11T22:01:00.656Z,5.63
2022-10-11T22:03:27.269Z,5.77
2022-10-11T22:05:54.564Z,5.53
2022-10-11T22:08:23.869Z,5.61
2022-10-11T22:10:57.167Z,5.62
2022-10-11T22:13:25.364Z,5.55
2022-10-11T22:15:52.171Z,5.73
2022-10-11T22:18:19.207Z,5.43
2022-10-11T22:20:45.817Z,5.54
2022-10-11T22:23:12.732Z,5.39
2022-10-11T22:25:39.698Z,5.27
2022-10-11T22:28:06.847Z,5.36
2022-10-11T22:30:33.935Z,5.03
2022-10-11T22:33:00.716Z,5.09
2022-10-11T22:35:31.405Z,5.01
2022-10-11T22:38:00.243Z,4.90
2022-10-11T22:40:26.887Z,4.92
2022-10-11T22:42:53.609Z,4.66
2022-10-11T22:45:20.239Z,4.90
2022-10-11T22:47:46.839Z,4.70
2022-10-11T22:50:13.971Z,4.44
2022-10-11T22:52:40.616Z,4.52
2022-10-11T22:55:07.536Z,4.19
2022-10-11T22:57:34.410Z,4.27
2022-10-11T23:00:03.473Z,4.03
2022-10-11T23:02:30.095Z,4.10
2022-10-11T23:04:58.415Z,4.31
2022-10-11T23:07:25.088Z,4.03
2022-10-11T23:09:51.696Z,4.14
2022-10-11T23:12:20.145Z,3.98
2022-10-11T23:14:46.716Z,3.85
2022-10-11T23:17:13.292Z,3.91
2022-10-11T23:19:39.945Z,3.52
2022-10-11T23:22:06.488Z,3.53
2022-10-11T23:24:35.323Z,3.42
2022-10-11T23:27:01.899Z,3.21
2022-10-11T23:29:31.881Z,3.23
2022-10-11T23:31:58.504Z,3.26
2022-10-11T23:34:25.267Z,3.10
2022-10-11T23:36:51.906Z,3.30
2022-10-11T23:39:18.617Z,3.09
2022-10-11T23:41:47.332Z,3.11
2022-10-11T23:44:13.867Z,3.15
2022-10-11T23:46:40.519Z,2.96
2022-10-11T23:49:07.248Z,3.10
2022-10-11T23:51:34.563Z,2.98
2022-10-11T23:54:01.236Z,2.94
2022-10-11T23:56:27.835Z,3.18
2022-10-11T23:58:56.723Z,2.92
